DGF weather

Douglas Lake Airport
Douglas Lake, British Columbia, Canada

Public forecast

Using degrees Celsius for public forecast. Weather courtesy of forecast.io.

METAR (pilot weather report)

Closest report is Kelowna International Airport, 33.1 nm (61.2 km) ESE. Retrieved 2019/05/19 15:06 UTC (44 minutes ago):

CYLW 191506Z AUTO 35015KT 9SM CLR 14/07 A2981 RMK SLP097 DENSITY ALT 1700FT

TAF (pilot weather forecast)

Closest forecast is Kelowna International Airport, 33.1 nm (61.2 km) ESE. Retrieved 2019/05/19 13:42 UTC (2 hours ago):

TAF CYLW 191238Z 1913/2001 36010KT P6SM OVC080 FM191700 34010KT P6SM SCT080 FM192200 34012G22KT P6SM BKN060 TEMPO 1922/2001 P6SM -SHRA RMK FCST BASED ON AUTO OBS. NXT FCST BY 191900Z